sensor_id;sensor_type;location;lat;lon;timestamp;temperature;humidity
21282;DHT22;10800;53.096;18.328;2023-06-26T00:02:49;17.60;99.90
21282;DHT22;10800;53.096;18.328;2023-06-26T00:07:55;17.50;99.90
21282;DHT22;10800;53.096;18.328;2023-06-26T00:13:01;17.40;99.90
21282;DHT22;10800;53.096;18.328;2023-06-26T00:18:07;17.30;99.90
21282;DHT22;10800;53.096;18.328;2023-06-26T00:23:13;17.20;99.90
21282;DHT22;10800;53.096;18.328;2023-06-26T00:28:20;17.10;99.90
21282;DHT22;10800;53.096;18.328;2023-06-26T00:33:25;17.10;99.90
21282;DHT22;10800;53.096;18.328;2023-06-26T00:38:30;16.90;99.90
21282;DHT22;10800;53.096;18.328;2023-06-26T00:43:36;16.80;99.90
21282;DHT22;10800;53.096;18.328;2023-06-26T00:48:43;16.60;99.90
21282;DHT22;10800;53.096;18.328;2023-06-26T00:53:49;16.60;99.90
21282;DHT22;10800;53.096;18.328;2023-06-26T00:58:55;16.50;99.90
21282;DHT22;10800;53.096;18.328;2023-06-26T01:04:01;16.30;99.90
21282;DHT22;10800;53.096;18.328;2023-06-26T01:09:07;16.20;99.90
21282;DHT22;10800;53.096;18.328;2023-06-26T01:14:13;16.20;99.90
21282;DHT22;10800;53.096;18.328;2023-06-26T01:19:31;16.10;99.90
21282;DHT22;10800;53.096;18.328;2023-06-26T01:24:35;16.00;99.90
21282;DHT22;10800;53.096;18.328;2023-06-26T01:29:42;15.90;99.90
21282;DHT22;10800;53.096;18.328;2023-06-26T01:34:48;15.90;99.90
21282;DHT22;10800;53.096;18.328;2023-06-26T01:39:54;15.70;99.90
21282;DHT22;10800;53.096;18.328;2023-06-26T01:45:07;15.70;99.90
21282;DHT22;10800;53.096;18.328;2023-06-26T01:50:14;15.70;99.90
21282;DHT22;10800;53.096;18.328;2023-06-26T01:55:47;15.60;99.90
21282;DHT22;10800;53.096;18.328;2023-06-26T02:00:52;15.50;99.90
21282;DHT22;10800;53.096;18.328;2023-06-26T02:05:58;15.30;99.90
21282;DHT22;10800;53.096;18.328;2023-06-26T02:11:03;15.30;99.90
21282;DHT22;10800;53.096;18.328;2023-06-26T02:16:09;15.20;99.90
21282;DHT22;10800;53.096;18.328;2023-06-26T02:21:14;15.10;99.90
21282;DHT22;10800;53.096;18.328;2023-06-26T02:26:20;15.10;99.90
21282;DHT22;10800;53.096;18.328;2023-06-26T02:31:25;15.00;99.90
21282;DHT22;10800;53.096;18.328;2023-06-26T02:36:30;15.00;99.90
21282;DHT22;10800;53.096;18.328;2023-06-26T02:41:36;15.00;99.90
21282;DHT22;10800;53.096;18.328;2023-06-26T02:46:41;14.90;99.90
21282;DHT22;10800;53.096;18.328;2023-06-26T02:51:47;14.90;99.90
21282;DHT22;10800;53.096;18.328;2023-06-26T02:56:53;14.80;99.90
21282;DHT22;10800;53.096;18.328;2023-06-26T03:01:58;14.80;99.90
21282;DHT22;10800;53.096;18.328;2023-06-26T03:07:04;14.80;99.90
21282;DHT22;10800;53.096;18.328;2023-06-26T03:12:10;14.80;99.90
21282;DHT22;10800;53.096;18.328;2023-06-26T03:17:15;14.80;99.90
21282;DHT22;10800;53.096;18.328;2023-06-26T03:22:21;14.80;99.90
21282;DHT22;10800;53.096;18.328;2023-06-26T03:27:26;14.80;99.90
21282;DHT22;10800;53.096;18.328;2023-06-26T03:32:31;14.80;99.90
21282;DHT22;10800;53.096;18.328;2023-06-26T03:37:37;14.90;99.90
21282;DHT22;10800;53.096;18.328;2023-06-26T03:42:43;14.90;99.90
21282;DHT22;10800;53.096;18.328;2023-06-26T03:47:48;15.00;99.90
21282;DHT22;10800;53.096;18.328;2023-06-26T03:52:54;15.10;99.90
21282;DHT22;10800;53.096;18.328;2023-06-26T03:58:00;15.20;99.90
21282;DHT22;10800;53.096;18.328;2023-06-26T04:03:05;15.30;99.90
21282;DHT22;10800;53.096;18.328;2023-06-26T04:08:12;15.50;99.90
21282;DHT22;10800;53.096;18.328;2023-06-26T04:13:18;15.70;99.90
21282;DHT22;10800;53.096;18.328;2023-06-26T04:18:23;15.80;99.90
21282;DHT22;10800;53.096;18.328;2023-06-26T04:23:29;15.90;99.90
21282;DHT22;10800;53.096;18.328;2023-06-26T04:28:35;16.10;99.90
21282;DHT22;10800;53.096;18.328;2023-06-26T04:33:40;16.20;99.90
21282;DHT22;10800;53.096;18.328;2023-06-26T04:38:47;16.40;99.90
21282;DHT22;10800;53.096;18.328;2023-06-26T04:43:55;16.60;99.90
21282;DHT22;10800;53.096;18.328;2023-06-26T04:49:01;16.80;99.90
21282;DHT22;10800;53.096;18.328;2023-06-26T04:54:08;17.00;99.90
21282;DHT22;10800;53.096;18.328;2023-06-26T04:59:14;17.20;99.90
21282;DHT22;10800;53.096;18.328;2023-06-26T05:04:19;17.40;99.90
21282;DHT22;10800;53.096;18.328;2023-06-26T05:09:25;17.60;99.90
21282;DHT22;10800;53.096;18.328;2023-06-26T05:14:31;17.80;99.90
21282;DHT22;10800;53.096;18.328;2023-06-26T05:19:36;18.00;99.90
21282;DHT22;10800;53.096;18.328;2023-06-26T05:24:42;18.30;99.90
21282;DHT22;10800;53.096;18.328;2023-06-26T05:29:50;18.50;99.90
21282;DHT22;10800;53.096;18.328;2023-06-26T05:34:55;18.90;99.90
21282;DHT22;10800;53.096;18.328;2023-06-26T05:40:03;19.30;99.90
21282;DHT22;10800;53.096;18.328;2023-06-26T05:45:10;19.50;99.90
21282;DHT22;10800;53.096;18.328;2023-06-26T05:50:17;19.80;99.90
21282;DHT22;10800;53.096;18.328;2023-06-26T05:55:28;20.20;99.90
21282;DHT22;10800;53.096;18.328;2023-06-26T06:00:33;20.50;99.90
21282;DHT22;10800;53.096;18.328;2023-06-26T06:05:39;20.90;99.90
21282;DHT22;10800;53.096;18.328;2023-06-26T06:10:45;21.30;99.90
21282;DHT22;10800;53.096;18.328;2023-06-26T06:15:50;21.50;99.90
21282;DHT22;10800;53.096;18.328;2023-06-26T06:20:55;21.80;99.90
21282;DHT22;10800;53.096;18.328;2023-06-26T06:26:01;22.30;99.90
21282;DHT22;10800;53.096;18.328;2023-06-26T06:31:06;22.70;99.90
21282;DHT22;10800;53.096;18.328;2023-06-26T06:36:12;23.20;99.90
21282;DHT22;10800;53.096;18.328;2023-06-26T06:41:17;23.70;99.80
21282;DHT22;10800;53.096;18.328;2023-06-26T06:46:23;24.10;99.80
21282;DHT22;10800;53.096;18.328;2023-06-26T06:51:30;24.30;96.30
21282;DHT22;10800;53.096;18.328;2023-06-26T06:56:36;24.70;96.30
21282;DHT22;10800;53.096;18.328;2023-06-26T07:01:41;25.20;93.00
21282;DHT22;10800;53.096;18.328;2023-06-26T07:06:47;25.50;91.80
21282;DHT22;10800;53.096;18.328;2023-06-26T07:11:53;25.90;90.80
21282;DHT22;10800;53.096;18.328;2023-06-26T07:16:58;26.40;88.40
21282;DHT22;10800;53.096;18.328;2023-06-26T07:22:04;26.70;85.20
21282;DHT22;10800;53.096;18.328;2023-06-26T07:27:10;27.20;83.60
21282;DHT22;10800;53.096;18.328;2023-06-26T07:32:16;27.60;82.40
21282;DHT22;10800;53.096;18.328;2023-06-26T07:37:21;28.00;76.80
21282;DHT22;10800;53.096;18.328;2023-06-26T07:42:27;28.30;75.10
21282;DHT22;10800;53.096;18.328;2023-06-26T07:47:37;28.20;72.90
21282;DHT22;10800;53.096;18.328;2023-06-26T07:52:49;28.70;70.70
21282;DHT22;10800;53.096;18.328;2023-06-26T07:58:18;29.20;69.50
21282;DHT22;10800;53.096;18.328;2023-06-26T08:03:25;29.50;67.90
21282;DHT22;10800;53.096;18.328;2023-06-26T08:08:39;29.60;68.60
21282;DHT22;10800;53.096;18.328;2023-06-26T08:14:16;29.70;65.40
21282;DHT22;10800;53.096;18.328;2023-06-26T08:19:23;29.80;65.30
21282;DHT22;10800;53.096;18.328;2023-06-26T08:24:36;30.20;61.00
21282;DHT22;10800;53.096;18.328;2023-06-26T08:29:50;30.10;61.90
21282;DHT22;10800;53.096;18.328;2023-06-26T08:35:11;30.80;60.10
21282;DHT22;10800;53.096;18.328;2023-06-26T08:40:40;31.30;56.80
21282;DHT22;10800;53.096;18.328;2023-06-26T08:45:55;31.30;55.90
21282;DHT22;10800;53.096;18.328;2023-06-26T08:51:28;31.90;54.60
21282;DHT22;10800;53.096;18.328;2023-06-26T08:56:42;31.50;55.00
21282;DHT22;10800;53.096;18.328;2023-06-26T09:01:48;32.00;55.00
21282;DHT22;10800;53.096;18.328;2023-06-26T09:06:53;32.20;52.30
21282;DHT22;10800;53.096;18.328;2023-06-26T09:12:00;32.20;51.30
21282;DHT22;10800;53.096;18.328;2023-06-26T09:17:06;31.70;50.00
21282;DHT22;10800;53.096;18.328;2023-06-26T09:22:13;31.10;50.80
21282;DHT22;10800;53.096;18.328;2023-06-26T09:27:19;31.30;51.70
21282;DHT22;10800;53.096;18.328;2023-06-26T09:32:25;32.20;49.90
21282;DHT22;10800;53.096;18.328;2023-06-26T09:37:33;32.40;48.70
21282;DHT22;10800;53.096;18.328;2023-06-26T09:42:39;32.60;50.20
21282;DHT22;10800;53.096;18.328;2023-06-26T09:47:44;32.00;48.60
21282;DHT22;10800;53.096;18.328;2023-06-26T09:52:51;31.10;50.90
21282;DHT22;10800;53.096;18.328;2023-06-26T09:57:57;30.40;52.90
21282;DHT22;10800;53.096;18.328;2023-06-26T10:03:08;30.00;54.00
21282;DHT22;10800;53.096;18.328;2023-06-26T10:08:15;31.10;50.10
21282;DHT22;10800;53.096;18.328;2023-06-26T10:13:25;31.60;51.30
21282;DHT22;10800;53.096;18.328;2023-06-26T10:18:30;31.70;46.70
21282;DHT22;10800;53.096;18.328;2023-06-26T10:23:39;31.80;48.30
21282;DHT22;10800;53.096;18.328;2023-06-26T10:28:46;32.40;45.40
21282;DHT22;10800;53.096;18.328;2023-06-26T10:33:54;33.30;47.20
21282;DHT22;10800;53.096;18.328;2023-06-26T10:39:04;33.60;40.90
21282;DHT22;10800;53.096;18.328;2023-06-26T10:44:11;33.20;42.30
21282;DHT22;10800;53.096;18.328;2023-06-26T10:49:17;33.30;45.80
21282;DHT22;10800;53.096;18.328;2023-06-26T10:54:23;33.50;45.20
21282;DHT22;10800;53.096;18.328;2023-06-26T10:59:31;34.10;41.80
21282;DHT22;10800;53.096;18.328;2023-06-26T11:04:47;33.80;43.10
21282;DHT22;10800;53.096;18.328;2023-06-26T11:09:58;34.20;41.20
21282;DHT22;10800;53.096;18.328;2023-06-26T11:15:08;34.30;36.40
21282;DHT22;10800;53.096;18.328;2023-06-26T11:20:15;33.90;38.20
21282;DHT22;10800;53.096;18.328;2023-06-26T11:25:23;33.80;38.10
21282;DHT22;10800;53.096;18.328;2023-06-26T11:30:29;33.90;41.00
21282;DHT22;10800;53.096;18.328;2023-06-26T11:35:34;34.00;37.90
21282;DHT22;10800;53.096;18.328;2023-06-26T11:40:39;34.40;37.70
21282;DHT22;10800;53.096;18.328;2023-06-26T11:45:45;34.60;37.10
21282;DHT22;10800;53.096;18.328;2023-06-26T11:50:51;33.80;37.20
21282;DHT22;10800;53.096;18.328;2023-06-26T11:55:56;34.30;39.10
21282;DHT22;10800;53.096;18.328;2023-06-26T12:01:02;34.10;39.60
21282;DHT22;10800;53.096;18.328;2023-06-26T12:06:09;34.20;36.70
21282;DHT22;10800;53.096;18.328;2023-06-26T12:11:15;34.50;38.00
21282;DHT22;10800;53.096;18.328;2023-06-26T12:16:20;34.30;37.80
21282;DHT22;10800;53.096;18.328;2023-06-26T12:26:43;34.10;36.80
21282;DHT22;10800;53.096;18.328;2023-06-26T12:31:52;33.00;37.20
21282;DHT22;10800;53.096;18.328;2023-06-26T12:37:03;33.30;39.10
21282;DHT22;10800;53.096;18.328;2023-06-26T12:42:13;33.90;37.90
21282;DHT22;10800;53.096;18.328;2023-06-26T12:47:19;34.10;37.60
21282;DHT22;10800;53.096;18.328;2023-06-26T12:52:25;34.40;39.50
21282;DHT22;10800;53.096;18.328;2023-06-26T12:57:30;34.50;37.50
21282;DHT22;10800;53.096;18.328;2023-06-26T13:02:36;33.80;39.50
21282;DHT22;10800;53.096;18.328;2023-06-26T13:07:42;34.10;38.40
21282;DHT22;10800;53.096;18.328;2023-06-26T13:12:47;33.60;39.90
21282;DHT22;10800;53.096;18.328;2023-06-26T13:17:54;33.70;38.40
21282;DHT22;10800;53.096;18.328;2023-06-26T13:22:59;33.60;40.40
21282;DHT22;10800;53.096;18.328;2023-06-26T13:28:04;33.60;40.60
21282;DHT22;10800;53.096;18.328;2023-06-26T13:33:10;33.00;39.20
21282;DHT22;10800;53.096;18.328;2023-06-26T13:38:15;33.10;39.30
21282;DHT22;10800;53.096;18.328;2023-06-26T13:43:22;32.30;41.90
21282;DHT22;10800;53.096;18.328;2023-06-26T13:48:30;32.20;41.80
21282;DHT22;10800;53.096;18.328;2023-06-26T13:53:35;32.10;40.90
21282;DHT22;10800;53.096;18.328;2023-06-26T13:58:41;32.10;41.40
21282;DHT22;10800;53.096;18.328;2023-06-26T14:03:46;31.90;40.20
21282;DHT22;10800;53.096;18.328;2023-06-26T14:08:52;31.80;41.70
21282;DHT22;10800;53.096;18.328;2023-06-26T14:13:57;31.50;43.00
21282;DHT22;10800;53.096;18.328;2023-06-26T14:19:02;31.70;41.50
21282;DHT22;10800;53.096;18.328;2023-06-26T14:24:09;31.30;42.60
21282;DHT22;10800;53.096;18.328;2023-06-26T14:29:14;31.10;42.80
21282;DHT22;10800;53.096;18.328;2023-06-26T14:34:21;31.10;43.60
21282;DHT22;10800;53.096;18.328;2023-06-26T14:39:27;31.20;42.80
21282;DHT22;10800;53.096;18.328;2023-06-26T14:44:34;31.30;41.50
21282;DHT22;10800;53.096;18.328;2023-06-26T14:49:40;31.00;43.60
21282;DHT22;10800;53.096;18.328;2023-06-26T14:54:45;30.70;41.90
21282;DHT22;10800;53.096;18.328;2023-06-26T14:59:53;31.00;42.80
21282;DHT22;10800;53.096;18.328;2023-06-26T15:05:19;30.90;43.20
21282;DHT22;10800;53.096;18.328;2023-06-26T15:10:26;30.30;43.50
21282;DHT22;10800;53.096;18.328;2023-06-26T15:15:33;29.50;45.80
21282;DHT22;10800;53.096;18.328;2023-06-26T15:20:43;29.50;45.70
21282;DHT22;10800;53.096;18.328;2023-06-26T15:25:49;30.00;45.10
21282;DHT22;10800;53.096;18.328;2023-06-26T15:30:54;30.30;44.00
21282;DHT22;10800;53.096;18.328;2023-06-26T15:36:00;30.40;45.10
21282;DHT22;10800;53.096;18.328;2023-06-26T15:41:07;30.40;43.80
21282;DHT22;10800;53.096;18.328;2023-06-26T15:46:12;30.40;43.70
21282;DHT22;10800;53.096;18.328;2023-06-26T15:51:19;30.20;42.60
21282;DHT22;10800;53.096;18.328;2023-06-26T15:56:24;30.00;42.90
21282;DHT22;10800;53.096;18.328;2023-06-26T16:01:30;29.80;43.60
21282;DHT22;10800;53.096;18.328;2023-06-26T16:06:35;29.60;44.30
21282;DHT22;10800;53.096;18.328;2023-06-26T16:11:41;29.50;43.00
21282;DHT22;10800;53.096;18.328;2023-06-26T16:16:47;29.40;42.70
21282;DHT22;10800;53.096;18.328;2023-06-26T16:21:52;29.20;43.80
21282;DHT22;10800;53.096;18.328;2023-06-26T16:26:57;29.00;41.90
21282;DHT22;10800;53.096;18.328;2023-06-26T16:32:03;28.50;43.70
21282;DHT22;10800;53.096;18.328;2023-06-26T16:37:08;28.30;46.30
21282;DHT22;10800;53.096;18.328;2023-06-26T16:42:13;28.00;44.80
21282;DHT22;10800;53.096;18.328;2023-06-26T16:47:19;28.00;45.20
21282;DHT22;10800;53.096;18.328;2023-06-26T16:52:24;28.00;45.60
21282;DHT22;10800;53.096;18.328;2023-06-26T16:57:30;28.00;46.10
21282;DHT22;10800;53.096;18.328;2023-06-26T17:02:35;27.90;45.90
21282;DHT22;10800;53.096;18.328;2023-06-26T17:07:41;27.80;47.70
21282;DHT22;10800;53.096;18.328;2023-06-26T17:12:46;27.50;46.30
21282;DHT22;10800;53.096;18.328;2023-06-26T17:17:52;27.20;46.80
21282;DHT22;10800;53.096;18.328;2023-06-26T17:22:57;26.90;47.60
21282;DHT22;10800;53.096;18.328;2023-06-26T17:28:03;26.70;48.50
21282;DHT22;10800;53.096;18.328;2023-06-26T17:33:09;26.50;47.20
21282;DHT22;10800;53.096;18.328;2023-06-26T17:38:17;26.50;48.00
21282;DHT22;10800;53.096;18.328;2023-06-26T17:43:28;26.40;46.70
21282;DHT22;10800;53.096;18.328;2023-06-26T17:48:34;26.40;46.10
21282;DHT22;10800;53.096;18.328;2023-06-26T17:53:39;26.30;47.10
21282;DHT22;10800;53.096;18.328;2023-06-26T17:58:44;26.10;47.70
21282;DHT22;10800;53.096;18.328;2023-06-26T18:03:51;26.00;47.90
21282;DHT22;10800;53.096;18.328;2023-06-26T18:08:57;25.90;48.40
21282;DHT22;10800;53.096;18.328;2023-06-26T18:14:03;25.80;48.40
21282;DHT22;10800;53.096;18.328;2023-06-26T18:19:08;25.70;51.50
21282;DHT22;10800;53.096;18.328;2023-06-26T18:24:13;25.60;52.10
21282;DHT22;10800;53.096;18.328;2023-06-26T18:29:19;25.50;49.70
21282;DHT22;10800;53.096;18.328;2023-06-26T18:34:25;25.40;50.60
21282;DHT22;10800;53.096;18.328;2023-06-26T18:39:31;25.30;51.30
21282;DHT22;10800;53.096;18.328;2023-06-26T18:44:36;25.20;52.00
21282;DHT22;10800;53.096;18.328;2023-06-26T18:49:42;25.00;54.30
21282;DHT22;10800;53.096;18.328;2023-06-26T18:54:47;24.90;55.00
21282;DHT22;10800;53.096;18.328;2023-06-26T18:59:53;24.80;52.90
21282;DHT22;10800;53.096;18.328;2023-06-26T19:04:58;24.70;54.10
21282;DHT22;10800;53.096;18.328;2023-06-26T19:10:04;24.60;53.00
21282;DHT22;10800;53.096;18.328;2023-06-26T19:15:12;24.40;53.00
21282;DHT22;10800;53.096;18.328;2023-06-26T19:20:17;24.40;55.70
21282;DHT22;10800;53.096;18.328;2023-06-26T19:25:23;24.30;56.20
21282;DHT22;10800;53.096;18.328;2023-06-26T19:30:28;24.20;57.10
21282;DHT22;10800;53.096;18.328;2023-06-26T19:35:37;24.20;56.80
21282;DHT22;10800;53.096;18.328;2023-06-26T19:40:43;24.10;57.70
21282;DHT22;10800;53.096;18.328;2023-06-26T19:45:51;24.10;57.50
21282;DHT22;10800;53.096;18.328;2023-06-26T19:50:56;24.00;58.30
21282;DHT22;10800;53.096;18.328;2023-06-26T19:56:03;23.80;58.20
21282;DHT22;10800;53.096;18.328;2023-06-26T20:01:09;23.80;58.90
21282;DHT22;10800;53.096;18.328;2023-06-26T20:06:16;23.80;59.00
21282;DHT22;10800;53.096;18.328;2023-06-26T20:11:22;23.80;59.10
21282;DHT22;10800;53.096;18.328;2023-06-26T20:16:28;23.70;59.00
21282;DHT22;10800;53.096;18.328;2023-06-26T20:21:34;23.70;59.80
21282;DHT22;10800;53.096;18.328;2023-06-26T20:26:45;23.70;62.00
21282;DHT22;10800;53.096;18.328;2023-06-26T20:31:49;23.20;74.80
21282;DHT22;10800;53.096;18.328;2023-06-26T20:36:55;22.40;94.60
21282;DHT22;10800;53.096;18.328;2023-06-26T20:42:00;21.70;99.90
21282;DHT22;10800;53.096;18.328;2023-06-26T20:47:06;21.10;99.90
21282;DHT22;10800;53.096;18.328;2023-06-26T20:52:17;21.00;99.90
21282;DHT22;10800;53.096;18.328;2023-06-26T20:57:23;20.90;99.90
21282;DHT22;10800;53.096;18.328;2023-06-26T21:02:28;20.70;99.90
21282;DHT22;10800;53.096;18.328;2023-06-26T21:07:34;20.60;99.90
21282;DHT22;10800;53.096;18.328;2023-06-26T21:12:39;20.50;99.90
21282;DHT22;10800;53.096;18.328;2023-06-26T21:17:45;20.50;99.90
21282;DHT22;10800;53.096;18.328;2023-06-26T21:22:50;20.50;99.90
21282;DHT22;10800;53.096;18.328;2023-06-26T21:27:56;20.50;99.90
21282;DHT22;10800;53.096;18.328;2023-06-26T21:33:01;20.50;99.90
21282;DHT22;10800;53.096;18.328;2023-06-26T21:38:09;20.40;99.90
21282;DHT22;10800;53.096;18.328;2023-06-26T21:43:25;20.50;99.90
21282;DHT22;10800;53.096;18.328;2023-06-26T21:48:49;20.50;99.90
21282;DHT22;10800;53.096;18.328;2023-06-26T21:54:04;20.60;99.90
21282;DHT22;10800;53.096;18.328;2023-06-26T21:59:12;20.60;99.90
21282;DHT22;10800;53.096;18.328;2023-06-26T22:04:23;20.50;99.90
21282;DHT22;10800;53.096;18.328;2023-06-26T22:09:33;20.30;99.90
21282;DHT22;10800;53.096;18.328;2023-06-26T22:14:40;20.30;99.90
21282;DHT22;10800;53.096;18.328;2023-06-26T22:19:50;20.40;99.90
21282;DHT22;10800;53.096;18.328;2023-06-26T22:25:20;20.30;99.90
21282;DHT22;10800;53.096;18.328;2023-06-26T22:30:44;20.20;99.90
21282;DHT22;10800;53.096;18.328;2023-06-26T22:35:52;19.90;99.90
21282;DHT22;10800;53.096;18.328;2023-06-26T22:40:58;19.90;99.90
21282;DHT22;10800;53.096;18.328;2023-06-26T22:46:23;20.00;99.90
21282;DHT22;10800;53.096;18.328;2023-06-26T22:51:32;20.00;99.90
21282;DHT22;10800;53.096;18.328;2023-06-26T22:56:42;19.90;99.90
21282;DHT22;10800;53.096;18.328;2023-06-26T23:02:08;19.90;99.90
21282;DHT22;10800;53.096;18.328;2023-06-26T23:07:19;19.90;99.90
21282;DHT22;10800;53.096;18.328;2023-06-26T23:12:28;19.90;99.90
21282;DHT22;10800;53.096;18.328;2023-06-26T23:17:56;20.00;99.90
21282;DHT22;10800;53.096;18.328;2023-06-26T23:23:23;19.90;99.90
21282;DHT22;10800;53.096;18.328;2023-06-26T23:28:47;19.90;99.90
21282;DHT22;10800;53.096;18.328;2023-06-26T23:34:12;19.80;99.90
21282;DHT22;10800;53.096;18.328;2023-06-26T23:39:50;19.70;99.90
21282;DHT22;10800;53.096;18.328;2023-06-26T23:45:00;19.60;99.90
21282;DHT22;10800;53.096;18.328;2023-06-26T23:50:10;19.50;99.90
21282;DHT22;10800;53.096;18.328;2023-06-26T23:55:43;19.40;99.90
